Time;durP1;ratioP1;P1;durP2;ratioP2;P2;SDS_P1;SDS_P2;PMS_P1;PMS_P2;Temp;Humidity;BMP_temperature;BMP_pressure;BME280_temperature;BME280_humidity;BME280_pressure;Samples;Min_cycle;Max_cycle;Signal;HPM_P1;HPM_P2
2021/07/25 00:00:45;;;;;;;15.10;3.33;;;19.00;99.70;;;;;;5090404;28;20462;-67
2021/07/25 00:03:12;;;;;;;9.47;3.73;;;19.00;99.70;;;;;;5089810;28;20864;-68
2021/07/25 00:05:42;;;;;;;9.80;4.10;;;19.00;99.70;;;;;;5090253;28;20445;-67
2021/07/25 00:08:11;;;;;;;10.30;3.97;;;19.00;99.70;;;;;;5090296;28;20964;-68
2021/07/25 00:10:39;;;;;;;7.00;3.50;;;19.00;99.70;;;;;;5089673;28;20571;-67
2021/07/25 00:13:06;;;;;;;10.40;3.90;;;19.00;99.70;;;;;;5089884;28;20453;-68
2021/07/25 00:15:33;;;;;;;10.63;3.77;;;19.00;99.70;;;;;;5089609;28;20449;-68
2021/07/25 00:17:59;;;;;;;10.57;4.53;;;19.00;99.70;;;;;;5090286;28;20446;-68
2021/07/25 00:20:26;;;;;;;8.00;3.90;;;18.90;99.70;;;;;;5089724;28;20473;-67
2021/07/25 00:22:54;;;;;;;11.83;4.70;;;18.90;99.70;;;;;;5089397;28;20630;-68
2021/07/25 00:25:21;;;;;;;9.30;4.10;;;19.00;99.70;;;;;;5089686;28;20442;-68
2021/07/25 00:27:52;;;;;;;9.43;4.13;;;19.00;99.70;;;;;;5090162;28;20844;-67
2021/07/25 00:30:20;;;;;;;12.93;5.93;;;19.00;99.70;;;;;;5089625;28;20980;-68
2021/07/25 00:32:47;;;;;;;7.67;3.70;;;19.00;99.70;;;;;;5088752;28;20448;-68
2021/07/25 00:35:14;;;;;;;10.50;4.10;;;19.00;99.70;;;;;;5089127;28;20445;-67
2021/07/25 00:37:43;;;;;;;9.73;4.20;;;18.90;99.70;;;;;;5071897;28;20459;-68
2021/07/25 00:40:20;;;;;;;9.47;3.80;;;18.90;99.70;;;;;;5074086;28;20470;-68
2021/07/25 00:42:47;;;;;;;9.80;4.03;;;18.90;99.70;;;;;;5073332;28;20839;-68
2021/07/25 00:45:14;;;;;;;11.13;3.80;;;18.90;99.70;;;;;;5074746;28;20454;-68
2021/07/25 00:47:41;;;;;;;10.53;4.10;;;19.00;99.70;;;;;;5091132;28;20449;-68
2021/07/25 00:50:09;;;;;;;10.07;4.30;;;19.00;99.70;;;;;;5093497;28;20466;-68
2021/07/25 00:52:37;;;;;;;10.40;4.17;;;18.90;99.70;;;;;;5084935;28;20443;-68
2021/07/25 00:55:04;;;;;;;9.43;3.77;;;19.00;99.70;;;;;;5089148;28;20441;-68
2021/07/25 00:57:32;;;;;;;10.17;3.73;;;19.00;99.70;;;;;;5093848;28;20468;-68
2021/07/25 00:59:59;;;;;;;8.67;4.67;;;19.10;99.70;;;;;;5092963;28;20457;-68
2021/07/25 01:02:29;;;;;;;8.53;3.30;;;19.00;99.70;;;;;;5093727;28;20452;-68
2021/07/25 01:05:04;;;;;;;8.47;3.13;;;19.00;99.70;;;;;;5091867;28;20449;-67
2021/07/25 01:07:36;;;;;;;8.10;3.43;;;18.90;99.70;;;;;;5093373;28;20449;-68
2021/07/25 01:10:05;;;;;;;7.57;3.73;;;18.90;99.70;;;;;;5092945;28;20462;-68
2021/07/25 01:12:41;;;;;;;10.23;3.90;;;18.80;99.70;;;;;;5092450;28;20452;-68
2021/07/25 01:15:11;;;;;;;8.97;3.73;;;18.90;99.70;;;;;;5088869;28;20485;-68
2021/07/25 01:17:38;;;;;;;7.10;3.33;;;18.90;99.70;;;;;;5093442;28;20449;-68
2021/07/25 01:20:08;;;;;;;9.30;3.97;;;18.90;99.70;;;;;;5093321;28;21014;-68
2021/07/25 01:22:38;;;;;;;5.93;3.47;;;18.90;99.70;;;;;;5085116;28;20434;-68
2021/07/25 01:25:07;;;;;;;6.60;3.70;;;18.80;99.70;;;;;;5088021;28;20449;-68
2021/07/25 01:27:41;;;;;;;7.90;3.73;;;18.80;99.70;;;;;;5092714;28;20437;-68
2021/07/25 01:30:11;;;;;;;8.00;4.10;;;18.80;99.70;;;;;;5093211;28;20466;-68
2021/07/25 01:32:39;;;;;;;12.30;4.30;;;18.80;99.70;;;;;;5092726;28;21212;-68
2021/07/25 01:35:09;;;;;;;8.37;4.03;;;18.80;99.70;;;;;;5092643;28;20445;-68
2021/07/25 01:37:36;;;;;;;6.63;3.47;;;18.80;99.70;;;;;;5091624;28;20956;-68
2021/07/25 01:40:12;;;;;;;9.40;3.77;;;18.90;99.70;;;;;;5092080;28;20903;-68
2021/07/25 01:42:38;;;;;;;8.20;4.60;;;18.90;99.70;;;;;;5078510;28;20442;-68
2021/07/25 01:45:06;;;;;;;9.27;3.73;;;18.80;99.70;;;;;;5072395;28;20439;-68
2021/07/25 01:47:34;;;;;;;8.93;3.70;;;18.80;99.70;;;;;;5072353;28;20952;-67
2021/07/25 01:50:00;;;;;;;7.77;3.63;;;18.80;99.70;;;;;;5072510;28;20462;-68
2021/07/25 01:52:28;;;;;;;8.90;3.80;;;18.80;99.70;;;;;;5078042;28;20478;-67
2021/07/25 01:54:55;;;;;;;11.17;4.80;;;18.80;99.70;;;;;;5074632;28;20451;-68
2021/07/25 01:57:22;;;;;;;9.10;4.00;;;18.80;99.70;;;;;;5072021;28;20948;-68
2021/07/25 01:59:49;;;;;;;7.70;3.37;;;18.80;99.70;;;;;;5072450;28;20442;-67
2021/07/25 02:02:16;;;;;;;16.23;4.30;;;18.70;99.70;;;;;;5071005;28;20438;-68
2021/07/25 02:04:42;;;;;;;8.17;3.43;;;18.80;99.70;;;;;;5074062;28;20445;-68
2021/07/25 02:07:09;;;;;;;8.77;3.83;;;18.70;99.70;;;;;;5072495;28;20443;-68
2021/07/25 02:09:38;;;;;;;6.83;3.53;;;18.70;99.70;;;;;;5078918;28;20964;-68
2021/07/25 02:12:05;;;;;;;11.03;4.30;;;18.70;99.70;;;;;;5092200;28;20481;-68
2021/07/25 02:14:33;;;;;;;9.27;3.50;;;18.70;99.70;;;;;;5091083;28;20975;-68
2021/07/25 02:17:00;;;;;;;6.10;3.10;;;18.60;99.70;;;;;;5092542;28;20446;-68
2021/07/25 02:19:27;;;;;;;8.53;4.23;;;18.70;99.70;;;;;;5092084;28;20438;-68
2021/07/25 02:21:55;;;;;;;7.60;4.00;;;18.70;99.70;;;;;;5089543;28;20466;-68
2021/07/25 02:24:21;;;;;;;8.80;4.20;;;18.60;99.70;;;;;;5081057;28;20817;-68
2021/07/25 02:26:50;;;;;;;16.63;4.10;;;18.60;99.70;;;;;;5091825;28;20438;-68
2021/07/25 02:29:17;;;;;;;9.07;4.00;;;18.60;99.70;;;;;;5092168;28;20540;-68
2021/07/25 02:31:44;;;;;;;7.47;3.90;;;18.70;99.70;;;;;;5091098;28;20501;-68
2021/07/25 02:34:11;;;;;;;9.53;3.87;;;18.70;99.70;;;;;;5091173;28;20446;-67
2021/07/25 02:36:38;;;;;;;7.93;4.30;;;18.80;99.70;;;;;;5077834;28;20446;-68
2021/07/25 02:39:05;;;;;;;8.47;4.03;;;18.70;99.70;;;;;;5091480;28;20791;-68
2021/07/25 02:41:31;;;;;;;10.23;4.30;;;18.80;99.70;;;;;;5086512;28;20455;-67
2021/07/25 02:44:00;;;;;;;8.37;4.30;;;18.80;99.70;;;;;;5070659;28;20439;-67
2021/07/25 02:46:26;;;;;;;12.77;4.67;;;18.70;99.70;;;;;;5071094;28;20957;-68
2021/07/25 02:48:53;;;;;;;7.77;3.80;;;18.60;99.70;;;;;;5071128;28;20821;-67
2021/07/25 02:51:21;;;;;;;6.77;3.83;;;18.60;99.70;;;;;;5079774;28;20482;-67
2021/07/25 02:53:47;;;;;;;8.37;3.30;;;18.70;99.70;;;;;;5079231;28;20446;-68
2021/07/25 02:56:14;;;;;;;11.07;3.90;;;18.70;99.70;;;;;;5090987;28;20438;-67
2021/07/25 02:58:41;;;;;;;9.40;4.40;;;18.70;99.70;;;;;;5091719;28;20446;-67
2021/07/25 03:01:12;;;;;;;11.30;4.30;;;18.60;99.70;;;;;;5090019;28;20461;-67
2021/07/25 03:03:40;;;;;;;9.30;4.40;;;18.70;99.70;;;;;;5091486;28;20446;-68
2021/07/25 03:06:07;;;;;;;8.40;3.93;;;18.70;99.70;;;;;;5088553;28;20445;-68
2021/07/25 03:08:34;;;;;;;8.03;4.07;;;18.60;99.70;;;;;;5090666;28;20449;-67
2021/07/25 03:11:02;;;;;;;10.73;4.23;;;18.60;99.70;;;;;;5090340;28;20950;-67
2021/07/25 03:13:29;;;;;;;8.33;4.10;;;18.60;99.70;;;;;;5090620;28;20442;-68
2021/07/25 03:16:00;;;;;;;9.10;4.17;;;18.50;99.70;;;;;;5090522;28;20456;-67
2021/07/25 03:18:28;;;;;;;12.60;4.83;;;18.50;99.70;;;;;;5085428;28;20443;-68
2021/07/25 03:20:55;;;;;;;8.47;4.37;;;18.60;99.70;;;;;;5070592;28;20489;-68
2021/07/25 03:23:22;;;;;;;9.43;4.13;;;18.60;99.70;;;;;;5082660;28;20790;-67
2021/07/25 03:25:48;;;;;;;5.73;3.17;;;18.60;99.70;;;;;;5067126;28;20782;-68
2021/07/25 03:28:15;;;;;;;8.27;3.97;;;18.60;99.70;;;;;;5068022;28;20452;-67
2021/07/25 03:30:42;;;;;;;8.40;3.90;;;18.60;99.70;;;;;;5066984;28;20467;-67
2021/07/25 03:33:10;;;;;;;7.17;3.33;;;18.50;99.70;;;;;;5068276;28;20446;-67
2021/07/25 03:35:38;;;;;;;10.20;4.40;;;18.60;99.70;;;;;;5066293;28;20447;-67
2021/07/25 03:38:05;;;;;;;9.83;4.10;;;18.60;99.70;;;;;;5067992;28;20457;-67
2021/07/25 03:40:32;;;;;;;8.00;3.93;;;18.70;99.70;;;;;;5069715;28;20490;-68
2021/07/25 03:42:59;;;;;;;8.83;3.30;;;18.60;99.70;;;;;;5069444;28;20825;-67
2021/07/25 03:45:26;;;;;;;11.43;3.87;;;18.60;99.70;;;;;;5069550;28;20449;-67
2021/07/25 03:47:54;;;;;;;8.33;3.97;;;18.60;99.70;;;;;;5090065;28;20449;-67
2021/07/25 03:50:21;;;;;;;7.50;4.23;;;18.50;99.70;;;;;;5087507;28;20453;-68
2021/07/25 03:52:50;;;;;;;8.93;3.93;;;18.60;99.70;;;;;;5077643;28;20536;-68
2021/07/25 03:55:17;;;;;;;10.00;4.20;;;18.70;99.70;;;;;;5086187;28;20442;-68
2021/07/25 03:57:45;;;;;;;8.80;4.07;;;18.70;99.70;;;;;;5090371;28;20952;-67
2021/07/25 04:00:12;;;;;;;7.33;3.20;;;18.60;99.70;;;;;;5090504;28;20465;-68
2021/07/25 04:02:39;;;;;;;6.83;3.03;;;18.60;99.70;;;;;;5089919;28;20446;-67
2021/07/25 04:05:06;;;;;;;7.03;2.47;;;18.70;99.70;;;;;;5088149;28;20446;-67
2021/07/25 04:07:33;;;;;;;5.30;3.00;;;18.70;99.70;;;;;;5089842;28;20446;-68
2021/07/25 04:10:02;;;;;;;6.00;2.97;;;18.70;99.70;;;;;;5089603;28;20930;-68
2021/07/25 04:12:28;;;;;;;4.80;2.70;;;18.70;99.70;;;;;;5088267;28;20489;-67
2021/07/25 04:14:55;;;;;;;8.60;2.70;;;18.70;99.70;;;;;;5089414;28;20451;-68
2021/07/25 04:17:22;;;;;;;4.33;2.70;;;18.70;99.70;;;;;;5090258;28;20442;-68
2021/07/25 04:19:48;;;;;;;5.60;2.30;;;18.60;99.70;;;;;;5089783;28;20445;-68
2021/07/25 04:22:15;;;;;;;6.70;2.50;;;18.50;99.70;;;;;;5084594;28;20823;-67
2021/07/25 04:24:42;;;;;;;5.70;3.03;;;18.40;99.70;;;;;;5080162;28;20442;-68
2021/07/25 04:27:11;;;;;;;4.67;2.23;;;18.40;99.70;;;;;;5089807;28;20453;-67
2021/07/25 04:29:38;;;;;;;6.27;2.90;;;18.50;99.70;;;;;;5089707;28;21096;-68
2021/07/25 04:32:05;;;;;;;7.60;3.27;;;18.50;99.70;;;;;;5074426;28;20483;-68
2021/07/25 04:34:33;;;;;;;4.90;2.40;;;18.40;99.70;;;;;;5070028;28;20458;-68
2021/07/25 04:37:01;;;;;;;6.20;2.60;;;18.40;99.70;;;;;;5089353;28;20446;-68
2021/07/25 04:39:29;;;;;;;5.13;2.63;;;18.40;99.70;;;;;;5089770;28;20450;-67
2021/07/25 04:41:57;;;;;;;7.00;2.67;;;18.40;99.70;;;;;;5074724;28;20873;-68
2021/07/25 04:44:29;;;;;;;6.50;3.20;;;18.40;99.70;;;;;;5069422;28;20451;-68
2021/07/25 04:47:01;;;;;;;7.33;3.53;;;18.60;99.70;;;;;;5069456;28;20447;-67
2021/07/25 04:49:33;;;;;;;6.33;3.10;;;18.70;99.70;;;;;;5069838;28;20443;-67
2021/07/25 04:52:01;;;;;;;5.93;2.90;;;18.70;99.70;;;;;;5070328;28;20510;-67
2021/07/25 04:54:35;;;;;;;7.70;2.97;;;18.70;99.70;;;;;;5078379;28;20445;-68
2021/07/25 04:57:06;;;;;;;5.97;2.50;;;18.60;99.70;;;;;;5089997;28;20441;-67
2021/07/25 04:59:43;;;;;;;10.10;2.93;;;18.70;99.70;;;;;;5089604;28;20450;-68
2021/07/25 05:02:11;;;;;;;6.87;2.70;;;18.70;99.70;;;;;;5089351;28;20936;-68
2021/07/25 05:04:38;;;;;;;5.20;2.87;;;18.80;99.70;;;;;;5088852;28;20474;-68
2021/07/25 05:07:06;;;;;;;6.27;3.07;;;18.90;99.70;;;;;;5089373;28;20448;-68
2021/07/25 05:09:33;;;;;;;6.30;3.10;;;18.90;99.70;;;;;;5074979;28;20450;-67
2021/07/25 05:12:09;;;;;;;6.87;3.40;;;18.90;99.70;;;;;;5069403;28;20482;-68
2021/07/25 05:14:40;;;;;;;8.50;3.40;;;18.90;99.70;;;;;;5069378;28;20489;-67
2021/07/25 05:17:15;;;;;;;6.67;4.10;;;18.80;99.70;;;;;;5069157;28;20442;-68
2021/07/25 05:19:56;;;;;;;6.27;3.17;;;18.90;99.70;;;;;;5084970;28;20449;-67
2021/07/25 05:22:34;;;;;;;5.37;3.10;;;18.90;99.70;;;;;;5084609;28;20439;-68
2021/07/25 05:25:05;;;;;;;7.70;3.90;;;18.90;99.70;;;;;;5086863;28;20442;-68
2021/07/25 05:27:40;;;;;;;6.17;3.37;;;18.80;99.70;;;;;;5092762;28;20955;-68
2021/07/25 05:30:10;;;;;;;7.80;3.40;;;18.80;99.70;;;;;;5093671;28;20561;-67
2021/07/25 05:32:36;;;;;;;7.77;3.50;;;18.80;99.70;;;;;;5072609;28;20854;-67
2021/07/25 05:35:04;;;;;;;7.63;3.30;;;18.80;99.70;;;;;;5082863;28;20446;-68
2021/07/25 05:37:30;;;;;;;8.33;3.90;;;18.80;99.70;;;;;;5076921;28;20443;-67
2021/07/25 05:39:57;;;;;;;9.33;4.00;;;18.80;99.70;;;;;;5072615;28;20818;-67
2021/07/25 05:42:24;;;;;;;8.20;3.70;;;18.80;99.70;;;;;;5089249;28;20434;-68
2021/07/25 05:44:51;;;;;;;6.13;3.70;;;18.80;99.70;;;;;;5092391;28;20446;-68
2021/07/25 05:47:19;;;;;;;9.93;4.03;;;18.90;99.70;;;;;;5090871;28;20438;-68
2021/07/25 05:49:46;;;;;;;9.43;3.63;;;18.90;99.70;;;;;;5089350;28;20527;-67
2021/07/25 05:52:12;;;;;;;9.37;3.80;;;19.00;99.70;;;;;;5083194;28;20478;-67
2021/07/25 05:54:39;;;;;;;6.30;3.90;;;19.00;99.70;;;;;;5081419;28;20438;-68
2021/07/25 05:57:06;;;;;;;7.20;3.13;;;19.10;99.70;;;;;;5092641;28;21075;-68
2021/07/25 05:59:33;;;;;;;7.97;3.60;;;19.20;99.70;;;;;;5092738;28;20449;-68
2021/07/25 06:02:02;;;;;;;6.30;3.60;;;19.20;99.70;;;;;;5092393;28;20458;-68
2021/07/25 06:04:30;;;;;;;7.93;4.00;;;19.20;99.70;;;;;;5080841;28;20489;-69
2021/07/25 06:06:57;;;;;;;8.07;4.10;;;19.20;99.70;;;;;;5085573;28;20827;-68
2021/07/25 06:09:24;;;;;;;9.50;3.90;;;19.30;99.70;;;;;;5080231;28;20442;-68
2021/07/25 06:11:51;;;;;;;7.80;3.33;;;19.40;99.70;;;;;;5092030;28;20474;-68
2021/07/25 06:14:18;;;;;;;8.50;3.93;;;19.40;99.70;;;;;;5091798;28;20821;-68
2021/07/25 06:16:44;;;;;;;6.57;3.13;;;19.50;99.70;;;;;;5092629;28;20542;-68
2021/07/25 06:19:11;;;;;;;4.43;2.90;;;19.40;99.70;;;;;;5074084;28;20447;-68
2021/07/25 06:21:39;;;;;;;7.83;3.80;;;19.40;99.70;;;;;;5071908;28;20505;-67
2021/07/25 06:24:06;;;;;;;7.67;3.17;;;19.40;99.70;;;;;;5074251;22;20912;-67
2021/07/25 06:26:33;;;;;;;7.43;3.10;;;19.40;99.70;;;;;;5071819;28;20450;-68
2021/07/25 06:29:00;;;;;;;5.90;3.07;;;19.40;99.70;;;;;;5072574;28;20446;-67
2021/07/25 06:31:26;;;;;;;7.00;3.43;;;19.50;99.70;;;;;;5087040;28;20965;-67
2021/07/25 06:33:53;;;;;;;9.60;3.47;;;19.70;99.70;;;;;;5070843;28;20482;-68
2021/07/25 06:36:20;;;;;;;7.30;3.30;;;19.70;99.70;;;;;;5070417;28;20819;-68
2021/07/25 06:38:48;;;;;;;7.10;3.30;;;19.70;99.70;;;;;;5071484;28;20486;-68
2021/07/25 06:41:15;;;;;;;6.80;3.53;;;19.80;99.70;;;;;;5070916;28;20949;-68
2021/07/25 06:43:41;;;;;;;11.23;4.10;;;19.90;99.70;;;;;;5071357;28;20463;-68
2021/07/25 06:46:09;;;;;;;7.57;3.50;;;19.90;99.70;;;;;;5070149;28;20450;-68
2021/07/25 06:48:36;;;;;;;8.50;3.57;;;20.10;99.70;;;;;;5070766;28;20954;-68
2021/07/25 06:51:04;;;;;;;8.83;3.30;;;20.40;99.70;;;;;;5071382;28;20830;-68
2021/07/25 06:53:32;;;;;;;7.63;3.77;;;20.50;99.70;;;;;;5070226;28;20490;-68
2021/07/25 06:56:03;;;;;;;7.90;3.20;;;21.30;99.70;;;;;;5070783;28;20469;-68
2021/07/25 06:58:29;;;;;;;7.20;3.33;;;22.00;99.70;;;;;;5070578;28;20446;-68
2021/07/25 07:00:56;;;;;;;9.10;4.30;;;22.30;99.70;;;;;;5051073;28;20454;-68
2021/07/25 07:03:23;;;;;;;5.93;3.57;;;22.50;99.70;;;;;;5069326;28;20470;-68
2021/07/25 07:05:50;;;;;;;5.00;3.00;;;22.70;99.70;;;;;;5070347;28;20840;-68
2021/07/25 07:08:16;;;;;;;6.50;3.20;;;23.00;99.70;;;;;;5071163;28;20458;-68
2021/07/25 07:10:46;;;;;;;8.10;3.80;;;23.20;99.70;;;;;;5069579;28;20465;-68
2021/07/25 07:13:16;;;;;;;7.03;3.50;;;23.50;99.70;;;;;;5070424;28;21003;-68
2021/07/25 07:15:45;;;;;;;5.77;3.00;;;23.30;99.70;;;;;;5069406;28;20442;-68
2021/07/25 07:18:12;;;;;;;5.30;3.43;;;23.70;99.70;;;;;;5071202;28;20457;-68
2021/07/25 07:20:39;;;;;;;6.10;3.00;;;23.50;99.70;;;;;;5070748;28;20868;-68
2021/07/25 07:23:08;;;;;;;7.80;3.07;;;23.20;99.70;;;;;;5069514;28;20441;-66
2021/07/25 07:25:36;;;;;;;4.83;3.20;;;22.70;99.70;;;;;;5050494;28;20497;-68
2021/07/25 07:28:04;;;;;;;8.20;3.50;;;22.60;99.70;;;;;;5049493;28;20454;-68
2021/07/25 07:30:33;;;;;;;6.40;3.43;;;22.30;99.70;;;;;;5051496;28;20833;-67
2021/07/25 07:33:06;;;;;;;5.57;3.50;;;22.60;99.70;;;;;;5049909;28;20479;-67
2021/07/25 07:35:33;;;;;;;5.80;3.43;;;22.40;99.70;;;;;;5051522;28;20822;-68
2021/07/25 07:37:59;;;;;;;4.97;3.10;;;22.20;99.70;;;;;;5049259;28;20455;-68
2021/07/25 07:40:26;;;;;;;5.23;3.20;;;22.00;99.70;;;;;;5051790;28;20964;-68
2021/07/25 07:42:53;;;;;;;7.57;3.60;;;22.20;99.70;;;;;;5069301;28;20797;-68
2021/07/25 07:45:20;;;;;;;5.53;3.57;;;22.10;99.70;;;;;;5069276;28;20728;-68
2021/07/25 07:47:49;;;;;;;7.40;3.57;;;22.10;99.70;;;;;;5070478;28;20716;-68
2021/07/25 07:50:16;;;;;;;6.10;2.90;;;22.00;99.70;;;;;;5068382;28;20447;-68
2021/07/25 07:52:42;;;;;;;4.00;2.57;;;22.00;99.70;;;;;;5069551;28;20474;-68
2021/07/25 07:55:10;;;;;;;5.67;2.97;;;21.90;99.70;;;;;;5069362;28;20470;-68
2021/07/25 07:57:37;;;;;;;6.57;3.27;;;21.70;99.70;;;;;;5069866;28;20797;-68
2021/07/25 08:00:04;;;;;;;4.50;2.63;;;21.50;99.70;;;;;;5070090;28;20450;-68
2021/07/25 08:02:31;;;;;;;5.67;2.77;;;21.60;99.70;;;;;;5069588;28;20448;-68
2021/07/25 08:04:59;;;;;;;5.43;3.00;;;21.50;99.70;;;;;;5061770;28;20475;-68
2021/07/25 08:07:26;;;;;;;6.00;2.60;;;21.30;99.70;;;;;;5049518;28;20448;-68
2021/07/25 08:09:52;;;;;;;5.07;3.30;;;21.30;99.70;;;;;;5049283;28;20447;-68
2021/07/25 08:12:19;;;;;;;7.53;3.03;;;21.30;99.70;;;;;;5049535;28;20447;-68
2021/07/25 08:14:46;;;;;;;7.23;3.20;;;21.50;99.70;;;;;;5049329;28;20726;-68
2021/07/25 08:17:13;;;;;;;4.90;2.67;;;21.70;99.70;;;;;;5049878;28;20961;-68
2021/07/25 08:19:40;;;;;;;4.97;3.00;;;21.70;99.70;;;;;;5050262;28;20439;-67
2021/07/25 08:22:09;;;;;;;5.90;3.00;;;21.80;99.70;;;;;;5049807;28;20456;-68
2021/07/25 08:24:38;;;;;;;5.87;2.90;;;21.80;99.70;;;;;;5048906;28;20482;-68
2021/07/25 08:27:06;;;;;;;6.43;2.80;;;21.80;99.70;;;;;;5049854;28;20454;-68
2021/07/25 08:29:32;;;;;;;4.73;2.50;;;21.70;99.70;;;;;;5049310;28;20549;-68
2021/07/25 08:32:00;;;;;;;8.80;3.20;;;21.60;99.70;;;;;;5049956;28;20865;-67
2021/07/25 08:34:27;;;;;;;5.20;3.00;;;21.50;99.70;;;;;;5049261;28;20519;-68
2021/07/25 08:36:54;;;;;;;9.63;3.57;;;21.50;99.70;;;;;;5049045;28;20447;-68
2021/07/25 08:39:22;;;;;;;5.80;2.80;;;21.50;99.70;;;;;;5048909;28;20501;-67
2021/07/25 08:42:05;;;;;;;6.17;3.30;;;21.50;99.70;;;;;;5047479;28;20451;-67
2021/07/25 08:44:50;;;;;;;6.50;3.40;;;21.30;99.70;;;;;;5066003;28;20491;-67
2021/07/25 08:47:20;;;;;;;6.63;2.93;;;21.30;99.70;;;;;;5057051;28;20439;-68
2021/07/25 08:49:52;;;;;;;7.23;3.67;;;21.30;99.70;;;;;;5069693;28;20439;-68
2021/07/25 08:52:22;;;;;;;5.27;3.00;;;21.30;99.70;;;;;;5069162;28;20793;-67
2021/07/25 08:54:50;;;;;;;8.60;3.20;;;21.30;99.70;;;;;;5068854;28;20455;-67
2021/07/25 08:57:19;;;;;;;8.10;3.37;;;21.30;99.70;;;;;;5069718;28;20449;-67
2021/07/25 08:59:48;;;;;;;7.20;3.70;;;21.20;99.70;;;;;;5072968;28;20453;-68
2021/07/25 09:02:20;;;;;;;6.10;3.53;;;21.30;99.70;;;;;;5070590;28;20447;-67
2021/07/25 09:04:48;;;;;;;7.20;3.53;;;21.40;99.70;;;;;;5079460;28;20469;-68
2021/07/25 09:07:15;;;;;;;7.57;3.80;;;21.40;99.70;;;;;;5063504;28;20451;-67
2021/07/25 09:09:43;;;;;;;6.70;3.20;;;21.40;99.70;;;;;;5078062;28;20522;-67
2021/07/25 09:12:14;;;;;;;7.20;3.60;;;21.50;99.70;;;;;;5062464;28;20881;-67
2021/07/25 09:14:45;;;;;;;5.60;3.60;;;21.50;99.70;;;;;;5072315;28;20482;-67
2021/07/25 09:17:12;;;;;;;6.63;3.43;;;21.50;99.70;;;;;;5072705;28;20447;-68
2021/07/25 09:20:14;;;;;;;6.93;3.13;;;21.60;99.70;;;;;;5072946;28;20447;-68
2021/07/25 09:22:56;;;;;;;8.10;4.00;;;21.50;99.70;;;;;;5070607;28;20438;-67
2021/07/25 09:25:29;;;;;;;8.77;3.63;;;21.50;99.70;;;;;;5072958;28;20446;-67
2021/07/25 09:28:16;;;;;;;6.37;3.50;;;21.60;99.70;;;;;;5072637;28;20438;-68
2021/07/25 09:30:43;;;;;;;8.10;3.30;;;21.60;99.70;;;;;;5070630;28;20443;-67
2021/07/25 09:33:30;;;;;;;8.20;3.40;;;21.50;99.70;;;;;;5052306;28;20502;-68
2021/07/25 09:36:09;;;;;;;7.00;3.57;;;21.50;99.70;;;;;;5053552;28;20442;-68
2021/07/25 09:38:36;;;;;;;7.00;3.50;;;21.50;99.70;;;;;;5052291;28;20443;-68
2021/07/25 09:41:14;;;;;;;7.03;2.93;;;21.40;99.70;;;;;;5052861;28;20455;-67
2021/07/25 09:43:43;;;;;;;7.13;3.30;;;21.40;99.70;;;;;;5051907;28;20475;-68
2021/07/25 09:46:10;;;;;;;9.90;4.30;;;21.40;99.70;;;;;;5067883;28;20469;-68
2021/07/25 09:48:37;;;;;;;5.87;3.10;;;21.50;99.70;;;;;;5072401;28;20439;-68
2021/07/25 09:51:21;;;;;;;7.23;4.03;;;21.50;99.70;;;;;;5072176;28;20450;-67
2021/07/25 09:53:50;;;;;;;6.23;3.60;;;21.50;99.70;;;;;;5072632;28;20490;-68
2021/07/25 09:56:19;;;;;;;6.83;3.30;;;21.50;99.70;;;;;;5071674;28;20453;-68
2021/07/25 09:58:47;;;;;;;8.10;3.43;;;21.50;99.70;;;;;;5083374;28;20453;-68
2021/07/25 10:01:35;;;;;;;6.10;3.03;;;21.50;99.70;;;;;;5072037;28;20450;-67
2021/07/25 10:04:12;;;;;;;6.33;3.27;;;21.60;99.70;;;;;;5072241;28;20537;-68
2021/07/25 10:06:41;;;;;;;7.33;3.70;;;21.50;99.70;;;;;;5069438;28;20462;-68
2021/07/25 10:09:09;;;;;;;6.70;3.40;;;21.40;99.70;;;;;;5070843;28;20508;-68
2021/07/25 10:11:37;;;;;;;7.80;3.33;;;21.40;99.70;;;;;;5070086;28;20471;-68
2021/07/25 10:14:05;;;;;;;8.20;3.80;;;21.50;99.70;;;;;;5052735;28;20549;-67
2021/07/25 10:16:32;;;;;;;6.83;2.83;;;21.50;99.70;;;;;;5052290;28;20444;-68
2021/07/25 10:19:01;;;;;;;6.67;3.67;;;21.50;99.70;;;;;;5051796;28;20447;-68
2021/07/25 10:21:31;;;;;;;5.77;3.13;;;21.50;99.70;;;;;;5051474;28;20448;-68
2021/07/25 10:23:59;;;;;;;8.80;3.40;;;21.60;99.70;;;;;;5084679;28;20466;-67
2021/07/25 10:26:27;;;;;;;8.10;3.50;;;21.60;99.70;;;;;;5074354;28;20440;-68
2021/07/25 10:28:55;;;;;;;5.60;2.90;;;21.60;99.70;;;;;;5051188;28;20451;-68
2021/07/25 10:31:25;;;;;;;5.93;3.17;;;21.70;99.70;;;;;;5051703;28;20469;-68
2021/07/25 10:33:54;;;;;;;5.73;3.27;;;21.70;99.70;;;;;;5051603;28;20832;-68
2021/07/25 10:36:23;;;;;;;8.80;3.20;;;21.80;99.70;;;;;;5050649;28;20444;-68
2021/07/25 10:38:50;;;;;;;5.60;3.23;;;21.70;99.70;;;;;;5060197;28;20537;-68
2021/07/25 10:41:21;;;;;;;6.00;2.90;;;21.60;99.70;;;;;;5070085;28;21024;-68
2021/07/25 10:43:48;;;;;;;7.90;3.67;;;21.50;99.70;;;;;;5067598;28;20845;-68
2021/07/25 10:46:22;;;;;;;5.93;3.30;;;21.30;99.70;;;;;;5067235;28;20454;-68
2021/07/25 10:49:19;;;;;;;6.20;3.20;;;21.30;99.70;;;;;;5075265;28;20928;-68
2021/07/25 10:51:57;;;;;;;6.60;3.10;;;21.20;99.70;;;;;;5074797;28;20497;-68
2021/07/25 10:54:34;;;;;;;5.07;2.93;;;21.20;99.70;;;;;;5070992;28;20487;-68
2021/07/25 10:57:03;;;;;;;6.00;3.23;;;21.20;99.70;;;;;;5063159;28;20443;-68
2021/07/25 10:59:41;;;;;;;4.17;2.83;;;21.20;99.70;;;;;;5070608;28;20469;-68
2021/07/25 11:02:09;;;;;;;4.87;2.80;;;21.30;99.70;;;;;;5066037;28;20446;-68
2021/07/25 11:05:02;;;;;;;5.80;3.00;;;21.50;99.70;;;;;;5056821;28;20460;-68
2021/07/25 11:07:35;;;;;;;7.33;3.67;;;21.50;99.70;;;;;;5050589;28;20451;-67
2021/07/25 11:10:06;;;;;;;5.30;2.70;;;21.50;99.70;;;;;;5073190;28;20481;-68
2021/07/25 11:13:21;;;;;;;6.63;2.90;;;21.50;99.70;;;;;;5072309;28;20451;-67
2021/07/25 11:15:49;;;;;;;6.30;3.40;;;21.50;99.70;;;;;;5065339;28;21000;-67
2021/07/25 11:18:30;;;;;;;5.57;2.70;;;21.60;99.70;;;;;;5064942;28;20466;-68
2021/07/25 11:21:04;;;;;;;4.70;2.50;;;21.60;99.70;;;;;;5059817;28;20438;-67
2021/07/25 11:23:36;;;;;;;6.70;3.07;;;21.60;99.70;;;;;;5073871;28;20495;-67
2021/07/25 11:26:38;;;;;;;4.90;2.53;;;21.50;99.70;;;;;;5059400;28;20457;-67
2021/07/25 11:29:10;;;;;;;4.57;2.80;;;21.50;99.70;;;;;;5070697;28;20942;-67
2021/07/25 11:31:45;;;;;;;5.57;2.87;;;21.50;99.70;;;;;;5057919;28;20472;-68
2021/07/25 11:34:14;;;;;;;6.23;3.07;;;21.50;99.70;;;;;;5062991;28;20505;-68
2021/07/25 11:36:44;;;;;;;5.23;2.67;;;21.60;99.70;;;;;;5070670;28;20821;-68
2021/07/25 11:39:12;;;;;;;7.70;3.40;;;21.70;99.70;;;;;;5059787;28;20435;-67
2021/07/25 11:41:40;;;;;;;4.20;2.80;;;21.70;99.70;;;;;;5056788;28;20447;-68
2021/07/25 11:44:08;;;;;;;6.53;3.53;;;21.60;99.70;;;;;;5061884;28;20459;-67
2021/07/25 11:46:45;;;;;;;6.50;3.40;;;21.70;99.70;;;;;;5054098;28;21028;-68
2021/07/25 11:49:14;;;;;;;9.57;3.60;;;21.80;99.70;;;;;;5051313;28;20526;-67
2021/07/25 11:51:51;;;;;;;8.20;3.20;;;21.70;99.70;;;;;;5052679;28;20448;-68
2021/07/25 11:54:23;;;;;;;7.67;3.00;;;21.60;99.70;;;;;;5061004;28;20995;-68
2021/07/25 11:57:14;;;;;;;4.63;3.07;;;21.50;99.70;;;;;;5089854;28;20800;-68
2021/07/25 11:59:48;;;;;;;6.70;3.23;;;21.60;99.70;;;;;;5055220;28;20828;-67
2021/07/25 12:02:22;;;;;;;6.40;3.70;;;21.70;99.70;;;;;;5068366;28;20451;-67
2021/07/25 12:04:49;;;;;;;4.90;2.90;;;21.70;99.70;;;;;;5062756;28;20463;-67
2021/07/25 12:07:19;;;;;;;6.73;3.33;;;21.50;99.70;;;;;;5079768;28;20448;-68
2021/07/25 12:09:47;;;;;;;6.77;3.57;;;21.50;99.70;;;;;;5058733;28;20451;-67
2021/07/25 12:12:19;;;;;;;5.13;3.00;;;21.50;99.70;;;;;;5070453;28;20961;-67
2021/07/25 12:14:48;;;;;;;7.70;3.40;;;21.60;99.70;;;;;;5084505;28;20482;-68
2021/07/25 12:17:47;;;;;;;7.50;3.73;;;21.50;99.70;;;;;;5090360;28;20454;-67
2021/07/25 12:20:18;;;;;;;6.43;3.00;;;21.40;99.70;;;;;;5090348;28;20449;-67
2021/07/25 12:22:55;;;;;;;6.17;3.60;;;21.30;99.70;;;;;;5090370;28;20825;-67
2021/07/25 12:25:22;;;;;;;5.37;3.20;;;21.40;99.70;;;;;;5087484;28;20440;-68
2021/07/25 12:28:03;;;;;;;7.13;3.23;;;21.30;99.70;;;;;;5069919;28;20447;-68
2021/07/25 12:30:39;;;;;;;4.00;2.60;;;21.20;99.70;;;;;;5069520;28;20442;-68
2021/07/25 12:33:06;;;;;;;10.53;3.40;;;21.20;99.70;;;;;;5070798;28;20449;-68
2021/07/25 12:35:34;;;;;;;7.00;3.17;;;21.10;99.70;;;;;;5073053;28;20490;-68
2021/07/25 12:38:08;;;;;;;5.70;3.00;;;21.10;99.70;;;;;;5074059;28;20461;-68
2021/07/25 12:40:46;;;;;;;3.63;2.30;;;21.10;99.70;;;;;;5071315;28;20439;-67
2021/07/25 12:43:17;;;;;;;5.97;3.00;;;21.00;99.70;;;;;;5079211;28;20465;-67
2021/07/25 12:45:45;;;;;;;5.77;2.67;;;21.00;99.70;;;;;;5069645;28;20438;-68
2021/07/25 12:48:13;;;;;;;7.77;3.20;;;21.00;99.70;;;;;;5074133;28;20450;-67
2021/07/25 12:50:54;;;;;;;7.50;3.27;;;20.90;99.70;;;;;;5073641;28;20438;-68
2021/07/25 12:53:30;;;;;;;6.40;3.07;;;20.80;99.70;;;;;;5059153;28;20467;-67
2021/07/25 12:55:58;;;;;;;5.73;3.33;;;20.70;99.70;;;;;;5061773;28;20565;-67
2021/07/25 12:58:27;;;;;;;5.40;2.43;;;20.80;99.70;;;;;;5068607;28;20941;-67